createdAt,value
2018-10-11T00:00:02.000Z,30.4
2018-10-11T00:02:02.000Z,30.4
2018-10-11T00:03:02.000Z,30.4
2018-10-11T00:05:02.000Z,30.4
2018-10-11T00:06:02.000Z,30.5
2018-10-11T00:07:02.000Z,30.5
2018-10-11T00:09:02.000Z,30.5
2018-10-11T00:11:02.000Z,30.5
2018-10-11T00:13:02.000Z,30.4
2018-10-11T00:14:02.000Z,30.4
2018-10-11T00:16:02.000Z,30.4
2018-10-11T00:18:02.000Z,30.4
2018-10-11T00:20:02.000Z,30.3
2018-10-11T00:22:02.000Z,30.3
2018-10-11T00:23:02.000Z,30.3
2018-10-11T00:24:02.000Z,30.3
2018-10-11T00:25:02.000Z,30.4
2018-10-11T00:27:02.000Z,30.4
2018-10-11T00:28:02.000Z,30.5
2018-10-11T00:29:47.000Z,30.5
2018-10-11T00:31:02.000Z,30.5
2018-10-11T00:33:02.000Z,30.5
2018-10-11T00:34:47.000Z,30.4
2018-10-11T00:36:02.000Z,30.4
2018-10-11T00:38:02.000Z,30.4
2018-10-11T00:40:02.000Z,30.4
2018-10-11T00:41:02.000Z,30.4
2018-10-11T00:43:02.000Z,30.4
2018-10-11T00:45:02.000Z,30.4
2018-10-11T00:46:02.000Z,30.4
2018-10-11T00:48:02.000Z,30.4
2018-10-11T00:49:02.000Z,30.4
2018-10-11T00:50:02.000Z,30.4
2018-10-11T00:52:02.000Z,30.4
2018-10-11T00:53:47.000Z,30.4
2018-10-11T00:55:02.000Z,30.4
2018-10-11T00:56:03.000Z,30.4
2018-10-11T00:58:02.000Z,30.4
2018-10-11T00:59:03.000Z,30.4
2018-10-11T01:01:02.000Z,30.5
2018-10-11T01:02:02.000Z,30.5
2018-10-11T01:04:02.000Z,30.5
2018-10-11T01:06:02.000Z,30.4
2018-10-11T01:08:02.000Z,30.3
2018-10-11T01:09:02.000Z,30.3
2018-10-11T01:10:02.000Z,30.3
2018-10-11T01:11:02.000Z,30.3
2018-10-11T01:13:02.000Z,30.4
2018-10-11T01:14:02.000Z,30.4
2018-10-11T01:15:02.000Z,30.5
2018-10-11T01:16:02.000Z,30.5
2018-10-11T01:18:02.000Z,30.5
2018-10-11T01:20:02.000Z,30.5
2018-10-11T01:22:02.000Z,30.4
2018-10-11T01:24:02.000Z,30.3
2018-10-11T01:25:02.000Z,30.3
2018-10-11T01:27:02.000Z,30.4
2018-10-11T01:29:02.000Z,30.3
2018-10-11T01:30:02.000Z,30.3
2018-10-11T01:32:02.000Z,30.4
2018-10-11T01:34:02.000Z,30.4
2018-10-11T01:36:02.000Z,30.4
2018-10-11T01:38:02.000Z,30.3
2018-10-11T01:40:02.000Z,30.2
2018-10-11T01:42:02.000Z,30.2
2018-10-11T01:43:02.000Z,30.2
2018-10-11T01:45:02.000Z,30.2
2018-10-11T01:47:02.000Z,30.3
2018-10-11T01:48:02.000Z,30.3
2018-10-11T01:49:02.000Z,30.3
2018-10-11T01:51:02.000Z,30.4
2018-10-11T01:53:02.000Z,30.4
2018-10-11T01:54:02.000Z,30.4
2018-10-11T01:56:02.000Z,30.4
2018-10-11T01:57:02.000Z,30.4
2018-10-11T01:59:02.000Z,30.5
2018-10-11T02:00:02.000Z,30.5
2018-10-11T02:02:02.000Z,30.4
2018-10-11T02:03:02.000Z,30.4
2018-10-11T02:04:02.000Z,30.4
2018-10-11T02:05:02.000Z,30.5
2018-10-11T02:07:02.000Z,30.5
2018-10-11T02:08:02.000Z,30.5
2018-10-11T02:10:02.000Z,30.5
2018-10-11T02:12:02.000Z,30.4
2018-10-11T02:13:02.000Z,30.4
2018-10-11T02:14:02.000Z,30.4
2018-10-11T02:15:02.000Z,30.4
2018-10-11T02:17:02.000Z,30.5
2018-10-11T02:19:02.000Z,30.4
2018-10-11T02:21:02.000Z,30.3
2018-10-11T02:22:02.000Z,30.3
2018-10-11T02:23:02.000Z,30.3
2018-10-11T02:25:02.000Z,30.3
2018-10-11T02:27:02.000Z,30.3
2018-10-11T02:29:02.000Z,30.3
2018-10-11T02:30:02.000Z,30.3
2018-10-11T02:32:02.000Z,30.3
2018-10-11T02:33:02.000Z,30.3
2018-10-11T02:34:02.000Z,30.4
2018-10-11T02:35:02.000Z,30.4
2018-10-11T02:36:02.000Z,30.5
2018-10-11T02:38:02.000Z,30.5
2018-10-11T02:39:02.000Z,30.4
2018-10-11T02:41:02.000Z,30.4
2018-10-11T02:43:02.000Z,30.4
2018-10-11T02:44:02.000Z,30.4
2018-10-11T02:45:02.000Z,30.4
2018-10-11T02:47:02.000Z,30.5
2018-10-11T02:49:02.000Z,30.4
2018-10-11T02:51:02.000Z,30.3
2018-10-11T02:52:02.000Z,30.3
2018-10-11T02:53:02.000Z,30.3
2018-10-11T02:54:02.000Z,30.3
2018-10-11T02:55:47.000Z,30.4
2018-10-11T02:57:02.000Z,30.4
2018-10-11T02:58:02.000Z,30.4
2018-10-11T03:00:02.000Z,30.4
2018-10-11T03:02:02.000Z,30.4
2018-10-11T03:04:02.000Z,30.3
2018-10-11T03:06:02.000Z,30.3
2018-10-11T03:07:02.000Z,30.3
2018-10-11T03:09:02.000Z,30.3
2018-10-11T03:11:02.000Z,30.3
2018-10-11T03:12:02.000Z,30.3
2018-10-11T03:13:02.000Z,30.3
2018-10-11T03:15:02.000Z,30.3
2018-10-11T03:16:02.000Z,30.3
2018-10-11T03:18:02.000Z,30.4
2018-10-11T03:19:02.000Z,30.4
2018-10-11T03:20:02.000Z,30.4
2018-10-11T03:21:02.000Z,30.5
2018-10-11T03:23:02.000Z,30.5
2018-10-11T03:24:02.000Z,30.5
2018-10-11T03:26:02.000Z,30.5
2018-10-11T03:27:02.000Z,30.4
2018-10-11T03:28:02.000Z,30.4
2018-10-11T03:30:02.000Z,30.4
2018-10-11T03:31:02.000Z,30.4
2018-10-11T03:33:02.000Z,30.4
2018-10-11T03:34:47.000Z,30.4
2018-10-11T03:36:02.000Z,30.3
2018-10-11T03:38:02.000Z,30.3
2018-10-11T03:40:02.000Z,30.2
2018-10-11T03:41:47.000Z,30.2
2018-10-11T03:43:02.000Z,30.2
2018-10-11T03:45:02.000Z,30.2
2018-10-11T03:47:02.000Z,30.1
2018-10-11T03:49:02.000Z,30.1
2018-10-11T03:50:02.000Z,30.1
2018-10-11T03:51:02.000Z,30.2
2018-10-11T03:53:02.000Z,30.2
2018-10-11T03:55:02.000Z,30.1
2018-10-11T03:56:02.000Z,30.1
2018-10-11T03:57:02.000Z,30.1
2018-10-11T03:59:02.000Z,30.1
2018-10-11T04:00:47.000Z,30.2
2018-10-11T04:02:02.000Z,30.1
2018-10-11T04:03:02.000Z,30.1
2018-10-11T04:05:02.000Z,30.1
2018-10-11T04:06:02.000Z,30.1
2018-10-11T04:08:02.000Z,30.2
2018-10-11T04:09:02.000Z,30.2
2018-10-11T04:10:02.000Z,30.2
2018-10-11T04:11:02.000Z,30.3
2018-10-11T04:12:02.000Z,30.3
2018-10-11T04:14:02.000Z,30.3
2018-10-11T04:15:02.000Z,30.3
2018-10-11T04:17:02.000Z,30.3
2018-10-11T04:18:02.000Z,30.3
2018-10-11T04:19:47.000Z,30.3
2018-10-11T04:21:02.000Z,30.2
2018-10-11T04:23:02.000Z,30.1
2018-10-11T04:25:02.000Z,30
2018-10-11T04:26:02.000Z,30
2018-10-11T04:27:02.000Z,30
2018-10-11T04:29:02.000Z,30.1
2018-10-11T04:30:02.000Z,30.1
2018-10-11T04:32:02.000Z,30.1
2018-10-11T04:33:02.000Z,30.1
2018-10-11T04:34:02.000Z,30.1
2018-10-11T04:36:02.000Z,30.1
2018-10-11T04:38:02.000Z,30.1
2018-10-11T04:39:02.000Z,30.1
2018-10-11T04:40:02.000Z,30.2
2018-10-11T04:41:02.000Z,30.2
2018-10-11T04:43:02.000Z,30.2
2018-10-11T04:45:02.000Z,30.2
2018-10-11T04:47:02.000Z,30.1
2018-10-11T04:48:02.000Z,30.1
2018-10-11T04:50:02.000Z,30.1
2018-10-11T04:51:02.000Z,30.1
2018-10-11T04:52:02.000Z,30.2
2018-10-11T04:54:02.000Z,30.2
2018-10-11T04:56:02.000Z,30.1
2018-10-11T04:58:02.000Z,30
2018-10-11T05:00:02.000Z,30
2018-10-11T05:01:02.000Z,30
2018-10-11T05:02:02.000Z,30
2018-10-11T05:04:02.000Z,30
2018-10-11T05:06:02.000Z,29.9
2018-10-11T05:07:02.000Z,29.9
2018-10-11T05:08:02.000Z,30
2018-10-11T05:10:02.000Z,30
2018-10-11T05:12:02.000Z,30.1
2018-10-11T05:14:02.000Z,30.1
2018-10-11T05:16:02.000Z,30.1
2018-10-11T05:17:02.000Z,30.1
2018-10-11T05:19:02.000Z,30.2
2018-10-11T05:21:02.000Z,30.3
2018-10-11T05:22:02.000Z,30.3
2018-10-11T05:24:02.000Z,30.4
2018-10-11T05:26:02.000Z,30.4
2018-10-11T05:28:02.000Z,30.4
2018-10-11T05:29:02.000Z,30.4
2018-10-11T05:30:02.000Z,30.4
2018-10-11T05:32:02.000Z,30.5
2018-10-11T05:34:02.000Z,30.4
2018-10-11T05:35:03.000Z,30.4
2018-10-11T05:37:02.000Z,30.5
2018-10-11T05:38:02.000Z,30.5
2018-10-11T05:40:03.000Z,30.5
2018-10-11T05:42:02.000Z,30.4
2018-10-11T05:44:02.000Z,30.3
2018-10-11T05:45:02.000Z,30.3
2018-10-11T05:47:02.000Z,30.4
2018-10-11T05:49:02.000Z,30.4
2018-10-11T05:50:02.000Z,30.4
2018-10-11T05:51:03.000Z,30.4
2018-10-11T05:53:03.000Z,30.5
2018-10-11T05:55:02.000Z,30.5
2018-10-11T05:57:02.000Z,30.5
2018-10-11T05:58:02.000Z,30.5
2018-10-11T05:59:03.000Z,30.5
2018-10-11T06:01:03.000Z,30.6
2018-10-11T06:02:47.000Z,30.6
2018-10-11T06:04:02.000Z,30.5
2018-10-11T06:06:03.000Z,30.6
2018-10-11T06:08:02.000Z,30.6
2018-10-11T06:09:02.000Z,30.6
2018-10-11T06:10:03.000Z,30.6
2018-10-11T06:11:03.000Z,30.7
2018-10-11T06:14:03.000Z,31.1
2018-10-11T06:16:03.000Z,31.2
2018-10-11T06:17:47.000Z,31.2
2018-10-11T06:19:03.000Z,31
2018-10-11T06:21:03.000Z,30.5
2018-10-11T06:22:03.000Z,30.3
2018-10-11T06:23:03.000Z,30.2
2018-10-11T06:24:03.000Z,30.1
2018-10-11T06:26:03.000Z,29.9
2018-10-11T06:28:03.000Z,29.8
2018-10-11T06:30:03.000Z,29.6
2018-10-11T06:31:03.000Z,29.6
2018-10-11T06:32:03.000Z,29.6
2018-10-11T06:34:03.000Z,29.5
2018-10-11T06:35:03.000Z,29.5
2018-10-11T06:37:03.000Z,29.4
2018-10-11T06:38:03.000Z,29.4
2018-10-11T06:39:03.000Z,29.4
2018-10-11T06:40:03.000Z,29.5
2018-10-11T06:42:03.000Z,29.5
2018-10-11T06:44:03.000Z,29.4
2018-10-11T06:45:03.000Z,29.3
2018-10-11T06:46:03.000Z,29.3
2018-10-11T06:47:03.000Z,29.4
2018-10-11T06:49:03.000Z,29.3
2018-10-11T06:51:03.000Z,29.2
2018-10-11T06:52:03.000Z,29.2
2018-10-11T06:53:03.000Z,29.3
2018-10-11T06:55:03.000Z,29.4
2018-10-11T06:56:48.000Z,29.4
2018-10-11T06:58:03.000Z,29.4
2018-10-11T07:00:03.000Z,29.5
2018-10-11T07:01:03.000Z,29.6
2018-10-11T07:03:03.000Z,29.8
2018-10-11T07:05:03.000Z,29.9
2018-10-11T07:07:03.000Z,30
2018-10-11T07:09:03.000Z,30
2018-10-11T07:11:03.000Z,30.2
2018-10-11T07:13:03.000Z,30.3
2018-10-11T07:14:03.000Z,30.4
2018-10-11T07:16:03.000Z,30.5
2018-10-11T07:17:03.000Z,30.6
2018-10-11T07:19:03.000Z,30.7
2018-10-11T07:20:03.000Z,30.7
2018-10-11T07:21:48.000Z,30.9
2018-10-11T07:23:03.000Z,31
2018-10-11T07:25:03.000Z,30.9
2018-10-11T07:26:03.000Z,31.1
2018-10-11T07:28:03.000Z,31.5
2018-10-11T07:30:03.000Z,31.7
2018-10-11T07:32:03.000Z,31.9
2018-10-11T07:34:03.000Z,31.8
2018-10-11T07:36:03.000Z,31.8
2018-10-11T07:38:03.000Z,31.8
2018-10-11T07:40:03.000Z,32
2018-10-11T07:41:03.000Z,32.1
2018-10-11T07:43:03.000Z,32.4
2018-10-11T07:45:03.000Z,32.6
2018-10-11T07:46:03.000Z,32.7
2018-10-11T07:48:03.000Z,33
2018-10-11T07:50:03.000Z,33.2
2018-10-11T07:51:03.000Z,33.3
2018-10-11T07:52:03.000Z,33.5
2018-10-11T07:53:48.000Z,33.9
2018-10-11T07:55:03.000Z,34.1
2018-10-11T07:56:03.000Z,34.2
2018-10-11T07:58:03.000Z,34.2
2018-10-11T08:00:03.000Z,33.9
2018-10-11T08:01:03.000Z,33.9
2018-10-11T08:02:03.000Z,33.9
2018-10-11T08:03:48.000Z,33.8
2018-10-11T08:05:03.000Z,33.6
2018-10-11T08:07:03.000Z,33.4
2018-10-11T08:09:03.000Z,33.2
2018-10-11T08:10:03.000Z,33.2
2018-10-11T08:12:03.000Z,33
2018-10-11T08:13:03.000Z,33
2018-10-11T08:15:03.000Z,32.8
2018-10-11T08:17:03.000Z,32.6
2018-10-11T08:18:03.000Z,32.5
2018-10-11T08:19:03.000Z,32.5
2018-10-11T08:21:03.000Z,32.5
2018-10-11T08:23:03.000Z,32.4
2018-10-11T08:25:03.000Z,32.3
2018-10-11T08:27:03.000Z,32.2
2018-10-11T08:28:03.000Z,32.1
2018-10-11T08:30:03.000Z,32.1
2018-10-11T08:31:48.000Z,32.1
2018-10-11T08:33:03.000Z,32
2018-10-11T08:34:03.000Z,32
2018-10-11T08:36:03.000Z,32
2018-10-11T08:38:03.000Z,32
2018-10-11T08:39:03.000Z,31.9
2018-10-11T08:41:03.000Z,31.9
2018-10-11T08:43:03.000Z,31.8
2018-10-11T08:45:03.000Z,31.8
2018-10-11T08:46:03.000Z,31.7
2018-10-11T08:47:03.000Z,31.7
2018-10-11T08:49:03.000Z,31.8
2018-10-11T08:50:03.000Z,31.8
2018-10-11T08:52:03.000Z,31.8
2018-10-11T08:54:03.000Z,31.8
2018-10-11T08:55:03.000Z,31.8
2018-10-11T08:56:47.000Z,31.8
2018-10-11T08:58:03.000Z,31.8
2018-10-11T08:59:03.000Z,31.8
2018-10-11T09:00:03.000Z,31.8
2018-10-11T09:02:03.000Z,31.8
2018-10-11T09:04:03.000Z,31.8
2018-10-11T09:06:03.000Z,31.7
2018-10-11T09:07:03.000Z,31.6
2018-10-11T09:09:03.000Z,31.6
2018-10-11T09:10:03.000Z,31.7
2018-10-11T09:12:03.000Z,31.7
2018-10-11T09:13:48.000Z,31.5
2018-10-11T09:15:03.000Z,31.6
2018-10-11T09:16:47.000Z,31.6
2018-10-11T09:18:03.000Z,31.6
2018-10-11T09:19:03.000Z,31.6
2018-10-11T09:21:03.000Z,31.7
2018-10-11T09:23:03.000Z,31.7
2018-10-11T09:25:03.000Z,31.6
2018-10-11T09:27:03.000Z,31.6
2018-10-11T09:28:03.000Z,31.6
2018-10-11T09:29:03.000Z,31.7
2018-10-11T09:31:03.000Z,31.7
2018-10-11T09:33:03.000Z,31.8
2018-10-11T09:34:03.000Z,31.8
2018-10-11T09:36:03.000Z,31.9
2018-10-11T09:37:03.000Z,31.9
2018-10-11T09:39:03.000Z,32
2018-10-11T09:40:03.000Z,32
2018-10-11T09:41:03.000Z,32.1
2018-10-11T09:42:03.000Z,32.1
2018-10-11T09:44:03.000Z,32.1
2018-10-11T09:46:03.000Z,32
2018-10-11T09:47:03.000Z,32
2018-10-11T09:48:03.000Z,32.1
2018-10-11T09:50:03.000Z,32.1
2018-10-11T09:51:03.000Z,32.2
2018-10-11T09:53:03.000Z,32.1
2018-10-11T09:55:03.000Z,32.1
2018-10-11T09:57:03.000Z,32.1
2018-10-11T09:59:03.000Z,32
2018-10-11T10:00:48.000Z,31.9
2018-10-11T10:02:03.000Z,31.9
2018-10-11T10:03:03.000Z,31.9
2018-10-11T10:04:03.000Z,32
2018-10-11T10:06:03.000Z,32.1
2018-10-11T10:07:03.000Z,32.1
2018-10-11T10:09:03.000Z,32.1
2018-10-11T10:10:48.000Z,32.1
2018-10-11T10:12:03.000Z,32
2018-10-11T10:14:03.000Z,32.1
2018-10-11T10:16:03.000Z,32.2
2018-10-11T10:18:03.000Z,32.2
2018-10-11T10:19:03.000Z,32.2
2018-10-11T10:20:03.000Z,32.3
2018-10-11T10:22:03.000Z,32.3
2018-10-11T10:23:48.000Z,32.3
2018-10-11T10:25:03.000Z,32.2
2018-10-11T10:27:03.000Z,32.2
2018-10-11T10:29:03.000Z,32.2
2018-10-11T10:30:03.000Z,32.2
2018-10-11T10:32:03.000Z,32.3
2018-10-11T10:33:03.000Z,32.4
2018-10-11T10:35:03.000Z,32.5
2018-10-11T10:37:03.000Z,32.5
2018-10-11T10:39:03.000Z,32.5
2018-10-11T10:41:03.000Z,32.4
2018-10-11T10:42:03.000Z,32.4
2018-10-11T10:44:03.000Z,32.5
2018-10-11T10:45:03.000Z,32.5
2018-10-11T10:46:03.000Z,32.5
2018-10-11T10:48:03.000Z,32.5
2018-10-11T10:49:03.000Z,32.5
2018-10-11T10:51:03.000Z,32.6
2018-10-11T10:53:03.000Z,32.6
2018-10-11T10:55:03.000Z,32.5
2018-10-11T10:56:03.000Z,32.5
2018-10-11T10:58:03.000Z,32.6
2018-10-11T11:08:03.000Z,31.4
2018-10-11T11:09:49.000Z,31.4
2018-10-11T11:11:49.000Z,31.6
2018-10-11T11:12:49.000Z,31.8
2018-10-11T11:13:49.000Z,31.9
2018-10-11T11:15:49.000Z,32.1
2018-10-11T11:17:49.000Z,32.1
2018-10-11T11:19:34.000Z,32.2
2018-10-11T11:20:49.000Z,32.2
2018-10-11T11:22:49.000Z,32.2
2018-10-11T11:23:49.000Z,32.2
2018-10-11T11:25:49.000Z,32.3
2018-10-11T11:27:34.000Z,32.3
2018-10-11T11:28:49.000Z,32.2
2018-10-11T11:29:49.000Z,32.3
2018-10-11T11:31:49.000Z,32.4
2018-10-11T11:33:49.000Z,32.3
2018-10-11T11:34:49.000Z,32.3
2018-10-11T11:36:49.000Z,32.4
2018-10-11T11:38:49.000Z,32.4
2018-10-11T11:40:49.000Z,32.3
2018-10-11T11:41:49.000Z,32.4
2018-10-11T11:42:49.000Z,32.5
2018-10-11T11:44:49.000Z,32.5
2018-10-11T11:45:49.000Z,32.5
2018-10-11T11:47:50.000Z,32.5
2018-10-11T11:48:50.000Z,32.5
2018-10-11T11:50:50.000Z,32.6
2018-10-11T11:51:50.000Z,32.6
2018-10-11T11:53:50.000Z,32.7
2018-10-11T11:55:34.000Z,32.7
2018-10-11T11:56:50.000Z,32.6
2018-10-11T11:57:50.000Z,32.6
2018-10-11T11:59:50.000Z,32.7
2018-10-11T12:01:50.000Z,32.7
2018-10-11T12:03:50.000Z,32.6
2018-10-11T12:04:50.000Z,32.6
2018-10-11T12:05:50.000Z,32.6
2018-10-11T12:07:50.000Z,32.7
2018-10-11T12:09:50.000Z,32.7
2018-10-11T12:10:50.000Z,32.7
2018-10-11T12:12:50.000Z,32.8
2018-10-11T12:13:50.000Z,32.8
2018-10-11T12:14:50.000Z,32.9
2018-10-11T12:15:50.000Z,33
2018-10-11T12:16:50.000Z,33
2018-10-11T12:18:34.000Z,33.1
2018-10-11T12:19:50.000Z,33
2018-10-11T12:21:50.000Z,33
2018-10-11T12:22:50.000Z,33
2018-10-11T12:23:50.000Z,33
2018-10-11T12:25:50.000Z,33
2018-10-11T12:26:50.000Z,33
2018-10-11T12:27:50.000Z,33.1
2018-10-11T12:29:50.000Z,33.1
2018-10-11T12:30:50.000Z,33.1
2018-10-11T12:32:50.000Z,33.1
2018-10-11T12:34:50.000Z,33
2018-10-11T12:35:50.000Z,33
2018-10-11T12:37:34.000Z,33
2018-10-11T12:38:50.000Z,33
2018-10-11T12:40:50.000Z,33
2018-10-11T12:42:50.000Z,32.9
2018-10-11T12:43:50.000Z,32.9
2018-10-11T12:45:50.000Z,33
2018-10-11T12:47:50.000Z,33
2018-10-11T12:48:50.000Z,33
2018-10-11T12:50:34.000Z,33
2018-10-11T12:51:49.000Z,33
2018-10-11T12:52:49.000Z,33.1
2018-10-11T12:54:49.000Z,33
2018-10-11T12:55:49.000Z,33
2018-10-11T12:56:49.000Z,33.1
2018-10-11T12:58:49.000Z,33.2
2018-10-11T13:00:34.000Z,33.2
2018-10-11T13:01:49.000Z,33.1
2018-10-11T13:02:49.000Z,33.1
2018-10-11T13:03:49.000Z,33.2
2018-10-11T13:05:49.000Z,33.2
2018-10-11T13:06:49.000Z,33.3
2018-10-11T13:07:49.000Z,33.4
2018-10-11T13:08:49.000Z,33.5
2018-10-11T13:10:49.000Z,33.5
2018-10-11T13:11:49.000Z,33.5
2018-10-11T13:12:49.000Z,33.6
2018-10-11T13:13:49.000Z,33.6
2018-10-11T13:15:49.000Z,33.7
2018-10-11T13:17:49.000Z,33.6
2018-10-11T13:19:49.000Z,33.5
2018-10-11T13:20:49.000Z,33.5
2018-10-11T13:22:49.000Z,33.4
2018-10-11T13:24:34.000Z,33.4
2018-10-11T13:25:49.000Z,33.3
2018-10-11T13:27:49.000Z,33.2
2018-10-11T13:28:49.000Z,33.2
2018-10-11T13:29:49.000Z,33.3
2018-10-11T13:31:49.000Z,33.4
2018-10-11T13:33:34.000Z,33.5
2018-10-11T13:34:49.000Z,33.5
2018-10-11T13:36:49.000Z,33.5
2018-10-11T13:38:49.000Z,33.5
2018-10-11T13:39:49.000Z,33.5
2018-10-11T13:41:49.000Z,33.5
2018-10-11T13:42:49.000Z,33.5
2018-10-11T13:44:49.000Z,34.6
2018-10-11T13:45:49.000Z,35.3
2018-10-11T13:47:49.000Z,36.5
2018-10-11T13:49:49.000Z,37.2
2018-10-11T13:51:49.000Z,37.7
2018-10-11T13:53:49.000Z,37.2
2018-10-11T13:55:50.000Z,36.3
2018-10-11T13:57:50.000Z,35.5
2018-10-11T13:59:34.000Z,35
2018-10-11T14:00:50.000Z,34.7
2018-10-11T14:02:50.000Z,34.3
2018-10-11T14:04:50.000Z,34
2018-10-11T14:05:50.000Z,33.9
2018-10-11T14:06:50.000Z,33.8
2018-10-11T14:08:50.000Z,33.6
2018-10-11T14:10:50.000Z,33.5
2018-10-11T14:11:50.000Z,33.5
2018-10-11T14:13:50.000Z,33.4
2018-10-11T14:15:50.000Z,33.3
2018-10-11T14:16:50.000Z,33.3
2018-10-11T14:18:50.000Z,33.3
2018-10-11T14:19:50.000Z,33.3
2018-10-11T14:21:50.000Z,33.2
2018-10-11T14:22:50.000Z,33.2
2018-10-11T14:24:50.000Z,33.1
2018-10-11T14:26:50.000Z,33
2018-10-11T14:28:50.000Z,32.9
2018-10-11T14:30:50.000Z,32.8
2018-10-11T14:31:50.000Z,32.7
2018-10-11T14:33:50.000Z,32.8
2018-10-11T14:34:50.000Z,32.8
2018-10-11T14:36:50.000Z,32.7
2018-10-11T14:38:50.000Z,32.7
2018-10-11T14:39:50.000Z,32.7
2018-10-11T14:40:50.000Z,32.8
2018-10-11T14:41:50.000Z,32.8
2018-10-11T14:43:50.000Z,32.8
2018-10-11T14:44:50.000Z,32.8
2018-10-11T14:45:50.000Z,32.9
2018-10-11T14:47:34.000Z,33
2018-10-11T14:48:50.000Z,32.9
2018-10-11T14:50:34.000Z,32.9
2018-10-11T14:51:50.000Z,32.8
2018-10-11T14:52:50.000Z,32.8
2018-10-11T14:54:34.000Z,32.8
2018-10-11T14:55:50.000Z,32.6
2018-10-11T14:56:50.000Z,32.6
2018-10-11T14:57:49.000Z,32.6
2018-10-11T14:58:49.000Z,32.6
2018-10-11T14:59:49.000Z,32.6
2018-10-11T15:01:49.000Z,32.6
2018-10-11T15:03:49.000Z,32.3
2018-10-11T15:04:49.000Z,32.3
2018-10-11T15:05:49.000Z,32.2
2018-10-11T15:07:49.000Z,32.3
2018-10-11T15:09:49.000Z,32.1
2018-10-11T15:10:49.000Z,32.1
2018-10-11T15:12:49.000Z,32
2018-10-11T15:14:49.000Z,32
2018-10-11T15:15:49.000Z,32
2018-10-11T15:17:49.000Z,32.1
2018-10-11T15:18:49.000Z,32.1
2018-10-11T15:20:49.000Z,32.2
2018-10-11T15:22:49.000Z,32.2
2018-10-11T15:23:49.000Z,32.2
2018-10-11T15:25:49.000Z,32.3
2018-10-11T15:27:49.000Z,32.2
2018-10-11T15:29:49.000Z,32
2018-10-11T15:30:49.000Z,32
2018-10-11T15:32:49.000Z,32
2018-10-11T15:33:49.000Z,32
2018-10-11T15:35:49.000Z,32.1
2018-10-11T15:37:49.000Z,32.1
2018-10-11T15:39:49.000Z,32.1
2018-10-11T15:40:49.000Z,32.1
2018-10-11T15:41:49.000Z,32
2018-10-11T15:42:49.000Z,32
2018-10-11T15:44:49.000Z,31.9
2018-10-11T15:45:49.000Z,31.9
2018-10-11T15:46:49.000Z,31.9
2018-10-11T15:48:49.000Z,31.9
2018-10-11T15:49:49.000Z,31.9
2018-10-11T15:51:49.000Z,32
2018-10-11T15:52:49.000Z,32
2018-10-11T15:54:49.000Z,32
2018-10-11T15:56:34.000Z,31.9
2018-10-11T15:57:49.000Z,31.9
2018-10-11T15:59:49.000Z,31.8
2018-10-11T16:00:49.000Z,31.8
2018-10-11T16:02:49.000Z,31.8
2018-10-11T16:03:49.000Z,31.9
2018-10-11T16:05:49.000Z,32
2018-10-11T16:07:49.000Z,32
2018-10-11T16:09:49.000Z,32
2018-10-11T16:10:49.000Z,32
2018-10-11T16:12:49.000Z,32.2
2018-10-11T16:14:49.000Z,32.1
2018-10-11T16:15:49.000Z,32.1
2018-10-11T16:17:49.000Z,32.2
2018-10-11T16:18:49.000Z,32.2
2018-10-11T16:20:49.000Z,32.3
2018-10-11T16:21:49.000Z,32.3
2018-10-11T16:22:49.000Z,32.3
2018-10-11T16:24:49.000Z,32.4
2018-10-11T16:25:49.000Z,32.4
2018-10-11T16:27:49.000Z,32.5
2018-10-11T16:28:49.000Z,32.4
2018-10-11T16:29:49.000Z,32.4
2018-10-11T16:31:49.000Z,32.4
2018-10-11T16:33:49.000Z,32.3
2018-10-11T16:34:49.000Z,32.3
2018-10-11T16:36:34.000Z,32.3
2018-10-11T16:37:49.000Z,32.2
2018-10-11T16:38:49.000Z,32.2
2018-10-11T16:39:49.000Z,32.3
2018-10-11T16:41:49.000Z,32.3
2018-10-11T16:42:49.000Z,32.3
2018-10-11T16:43:49.000Z,32.4
2018-10-11T16:45:49.000Z,32.4
2018-10-11T16:46:49.000Z,32.4
2018-10-11T16:48:49.000Z,32.4
2018-10-11T16:50:49.000Z,32.3
2018-10-11T16:52:49.000Z,32.2
2018-10-11T16:54:49.000Z,32.2
2018-10-11T16:56:49.000Z,32.1
2018-10-11T16:57:49.000Z,32
2018-10-11T16:58:49.000Z,32.1
2018-10-11T17:00:49.000Z,32.1
2018-10-11T17:02:49.000Z,32
2018-10-11T17:04:49.000Z,32
2018-10-11T17:06:50.000Z,32
2018-10-11T17:07:50.000Z,32
2018-10-11T17:09:50.000Z,32
2018-10-11T17:11:50.000Z,32
2018-10-11T17:12:50.000Z,32
2018-10-11T17:14:50.000Z,32.1
2018-10-11T17:16:50.000Z,32
2018-10-11T17:18:50.000Z,32
2018-10-11T17:19:50.000Z,32
2018-10-11T17:21:50.000Z,32
2018-10-11T17:22:50.000Z,32
2018-10-11T17:24:50.000Z,32.1
2018-10-11T17:25:50.000Z,32.1
2018-10-11T17:27:35.000Z,32.2
2018-10-11T17:28:50.000Z,32.1
2018-10-11T17:29:50.000Z,32.1
2018-10-11T17:31:35.000Z,32.1
2018-10-11T17:32:50.000Z,32.1
2018-10-11T17:34:50.000Z,32.1
2018-10-11T17:35:50.000Z,32.1
2018-10-11T17:36:50.000Z,32.1
2018-10-11T17:38:50.000Z,32.1
2018-10-11T17:39:50.000Z,32.1
2018-10-11T17:41:50.000Z,32.2
2018-10-11T17:42:50.000Z,32.1
2018-10-11T17:44:50.000Z,32.1
2018-10-11T17:46:50.000Z,32
2018-10-11T17:48:50.000Z,31.9
2018-10-11T17:49:50.000Z,31.9
2018-10-11T17:51:50.000Z,31.8
2018-10-11T17:53:50.000Z,31.8
2018-10-11T17:54:50.000Z,31.8
2018-10-11T17:56:50.000Z,31.9
2018-10-11T17:58:50.000Z,31.9
2018-10-11T17:59:50.000Z,31.9
2018-10-11T18:01:50.000Z,31.9
2018-10-11T18:03:50.000Z,31.9
2018-10-11T18:05:50.000Z,31.8
2018-10-11T18:06:50.000Z,31.8
2018-10-11T18:07:50.000Z,31.8
2018-10-11T18:08:49.000Z,31.9
2018-10-11T18:10:49.000Z,31.9
2018-10-11T18:12:49.000Z,31.9
2018-10-11T18:14:34.000Z,31.9
2018-10-11T18:15:49.000Z,31.8
2018-10-11T18:17:49.000Z,31.8
2018-10-11T18:18:49.000Z,31.8
2018-10-11T18:19:49.000Z,31.9
2018-10-11T18:20:49.000Z,32
2018-10-11T18:21:49.000Z,32
2018-10-11T18:23:49.000Z,32.1
2018-10-11T18:25:49.000Z,32.1
2018-10-11T18:27:49.000Z,32
2018-10-11T18:28:49.000Z,32
2018-10-11T18:30:49.000Z,31.9
2018-10-11T18:31:49.000Z,31.9
2018-10-11T18:33:34.000Z,31.9
2018-10-11T18:34:49.000Z,31.9
2018-10-11T18:36:49.000Z,31.8
2018-10-11T18:38:49.000Z,31.8
2018-10-11T18:39:49.000Z,31.8
2018-10-11T18:40:49.000Z,31.8
2018-10-11T18:42:49.000Z,31.9
2018-10-11T18:44:34.000Z,31.9
2018-10-11T18:45:49.000Z,31.9
2018-10-11T18:46:49.000Z,31.9
2018-10-11T18:48:49.000Z,31.9
2018-10-11T18:50:49.000Z,31.8
2018-10-11T18:51:49.000Z,31.8
2018-10-11T18:52:49.000Z,31.8
2018-10-11T18:54:49.000Z,31.9
2018-10-11T18:55:49.000Z,31.8
2018-10-11T18:56:49.000Z,31.9
2018-10-11T18:58:49.000Z,31.9
2018-10-11T19:00:49.000Z,31.9
2018-10-11T19:01:49.000Z,31.9
2018-10-11T19:03:49.000Z,31.9
2018-10-11T19:05:49.000Z,31.9
2018-10-11T19:06:49.000Z,31.9
2018-10-11T19:08:49.000Z,31.9
2018-10-11T19:10:34.000Z,31.9
2018-10-11T19:11:49.000Z,31.8
2018-10-11T19:12:49.000Z,31.8
2018-10-11T19:14:49.000Z,31.9
2018-10-11T19:15:49.000Z,31.9
2018-10-11T19:17:49.000Z,31.9
2018-10-11T19:18:49.000Z,31.9
2018-10-11T19:20:50.000Z,31.9
2018-10-11T19:22:34.000Z,31.8
2018-10-11T19:23:49.000Z,31.8
2018-10-11T19:24:49.000Z,31.8
2018-10-11T19:26:49.000Z,31.7
2018-10-11T19:27:49.000Z,31.7
2018-10-11T19:28:49.000Z,31.8
2018-10-11T19:30:49.000Z,31.8
2018-10-11T19:31:49.000Z,31.8
2018-10-11T19:33:49.000Z,31.8
2018-10-11T19:34:49.000Z,31.8
2018-10-11T19:35:49.000Z,31.8
2018-10-11T19:37:50.000Z,31.8
2018-10-11T19:39:49.000Z,31.7
2018-10-11T19:41:34.000Z,31.6
2018-10-11T19:42:49.000Z,31.6
2018-10-11T19:44:49.000Z,31.6
2018-10-11T19:45:49.000Z,31.6
2018-10-11T19:46:49.000Z,31.7
2018-10-11T19:48:49.000Z,31.7
2018-10-11T19:50:49.000Z,31.7
2018-10-11T19:51:49.000Z,31.6
2018-10-11T19:53:49.000Z,31.7
2018-10-11T19:54:49.000Z,31.7
2018-10-11T19:55:49.000Z,31.7
2018-10-11T19:56:49.000Z,31.8
2018-10-11T19:58:49.000Z,31.9
2018-10-11T20:00:50.000Z,31.8
2018-10-11T20:02:49.000Z,31.8
2018-10-11T20:03:50.000Z,31.8
2018-10-11T20:05:49.000Z,31.7
2018-10-11T20:07:49.000Z,31.6
2018-10-11T20:08:49.000Z,31.5
2018-10-11T20:09:50.000Z,31.6
2018-10-11T20:11:49.000Z,31.6
2018-10-11T20:12:50.000Z,31.6
2018-10-11T20:14:50.000Z,31.6
2018-10-11T20:16:49.000Z,31.6
2018-10-11T20:18:49.000Z,31.6
2018-10-11T20:19:49.000Z,31.6
2018-10-11T20:20:49.000Z,31.6
2018-10-11T20:21:49.000Z,31.7
2018-10-11T20:23:49.000Z,31.7
2018-10-11T20:24:49.000Z,31.7
2018-10-11T20:26:34.000Z,31.8
2018-10-11T20:27:49.000Z,31.7
2018-10-11T20:28:49.000Z,31.7
2018-10-11T20:29:49.000Z,31.8
2018-10-11T20:31:49.000Z,31.8
2018-10-11T20:33:49.000Z,31.8
2018-10-11T20:35:49.000Z,31.7
2018-10-11T20:36:49.000Z,31.7
2018-10-11T20:37:49.000Z,31.8
2018-10-11T20:39:49.000Z,31.8
2018-10-11T20:40:49.000Z,31.8
2018-10-11T20:41:49.000Z,31.8
2018-10-11T20:43:49.000Z,31.8
2018-10-11T20:45:49.000Z,31.7
2018-10-11T20:47:49.000Z,31.6
2018-10-11T20:49:49.000Z,31.5
2018-10-11T20:51:49.000Z,31.5